Almeria, Spain

6:08 PM CET on October 31, 2014 (GMT +0100)
IALMERIA2 | Change Station
CLOSE
Current Station
Personal Weather Station
Location: Almeria, ALMERIA
Elevation: 50 ft
Nearby Weather Stations

Elev 50 ft 36.85 °N, 2.38 °W | Updated 8 minutes ago

Partly Cloudy
Partly Cloudy
76.2 °F
Feels Like 77 °F
N
5.0
Wind Variable Wind from ESE
Gusts 8.0 mph

Today
High -- | Low -- °F
--% Chance of Precip.
Yesterday
High -- | Low -- °F
Precip. -- in
7:32 AM 6:13 PM
First Quarter, 57% visible
Pressure 30.15 in
Visibility 6.2 miles
Clouds Few 2000 ft
Heat Index 77 °F
Dew Point 33 °F
Humidity 21%
Rainfall 0.00 in
Snow Depth Not available.
UV 0 out of 12
Pollen Not available.
Air Quality Not available.
Flu Activity Not available.
METAR LEAM 311700Z 06012KT 9999 FEW020 24/10 Q1021

More Conditions Fewer Conditions

Pressure 30.15 in
Visibility 6.2 miles
Clouds Few 2000 ft
Heat Index 77 °F
Dew Point 33 °F
Humidity 21%
Rainfall 0.00 in
Snow Depth Not available.
UV 0 out of 12
Pollen Not available.
Air Quality Not available.
Flu Activity Not available.
METAR LEAM 311700Z 06012KT 9999 FEW020 24/10 Q1021

More Conditions Fewer Conditions

10-Day Weather Forecast

Almanac

Astronomy

Oct. 31, 2014 Rise Set
Actual Time
Civil Twilight
Nautical Twilight
Astronomical Twilight
Moon
Length of Visible Light
Length of Day
Tomorrow will be .
, % of the Moon is Illuminated

Today's Extremes

Country Highs Country Lows

Community

WunderPhotos

Upload Photos

1,766,660 photos uploaded!

WunderBlogs® & News

Nearby

Air Quality

  Air Quality AQ Index Pollutant
Not available.

Snow Depth

Station Depth Elevation

Earthquake Activity

City Distance Mag. Time & Date
Minimum magnitude displayed is 2.5.

Coastal Water Temperatures

Place Temperature

Nearby Weather Stations